createdAt,value
2019-01-19T00:00:19.104Z,98067.20
2019-01-19T00:00:50.729Z,98066.78
2019-01-19T00:01:22.359Z,98065.13
2019-01-19T00:01:53.984Z,98071.52
2019-01-19T00:02:25.594Z,98063.86
2019-01-19T00:02:57.257Z,98066.41
2019-01-19T00:03:28.884Z,98066.02
2019-01-19T00:04:00.508Z,98069.43
2019-01-19T00:04:32.129Z,98066.50
2019-01-19T00:05:10.229Z,98064.80
2019-01-19T00:05:35.428Z,98062.68
2019-01-19T00:06:07.039Z,98066.94
2019-01-19T00:06:38.664Z,98066.94
2019-01-19T00:07:10.275Z,98069.53
2019-01-19T00:07:41.885Z,98067.41
2019-01-19T00:08:13.534Z,98068.27
2019-01-19T00:08:45.130Z,98069.58
2019-01-19T00:09:16.724Z,98064.48
2019-01-19T00:09:48.345Z,98067.45
2019-01-19T00:10:19.965Z,98068.31
2019-01-19T00:10:51.593Z,98073.04
2019-01-19T00:11:23.208Z,98065.80
2019-01-19T00:11:54.813Z,98067.55
2019-01-19T00:12:26.435Z,98068.36
2019-01-19T00:12:58.056Z,98067.95
2019-01-19T00:13:29.710Z,98070.53
2019-01-19T00:14:01.315Z,98071.39
2019-01-19T00:14:32.935Z,98069.68
2019-01-19T00:15:04.527Z,98069.27
2019-01-19T00:15:36.142Z,98065.02
2019-01-19T00:16:07.768Z,98071.01
2019-01-19T00:16:39.400Z,98069.75
2019-01-19T00:17:11.022Z,98068.03
2019-01-19T00:17:42.652Z,98073.14
2019-01-19T00:18:14.261Z,98072.28
2019-01-19T00:18:45.903Z,98066.34
2019-01-19T00:19:17.511Z,98072.28
2019-01-19T00:19:49.178Z,98044.88
2019-01-19T00:20:20.804Z,98069.30
2019-01-19T00:20:52.413Z,98073.52
2019-01-19T00:21:24.040Z,98069.69
2019-01-19T00:21:55.682Z,98068.84
2019-01-19T00:22:27.302Z,98069.26
2019-01-19T00:22:58.938Z,98074.31
2019-01-19T00:23:30.543Z,98064.54
2019-01-19T00:24:02.149Z,98067.52
2019-01-19T00:24:33.766Z,98067.08
2019-01-19T00:25:05.419Z,98065.34
2019-01-19T00:25:37.044Z,98062.34
2019-01-19T00:26:08.677Z,98067.84
2019-01-19T00:26:40.284Z,98058.86
2019-01-19T00:27:11.912Z,98063.52
2019-01-19T00:27:43.533Z,98070.70
2019-01-19T00:28:15.143Z,98066.45
2019-01-19T00:28:46.764Z,98063.41
2019-01-19T00:29:18.385Z,98065.06
2019-01-19T00:29:49.996Z,98069.27
2019-01-19T00:30:21.650Z,98070.91
2019-01-19T00:30:53.259Z,98074.27
2019-01-19T00:31:24.900Z,98069.95
2019-01-19T00:31:56.521Z,98075.86
2019-01-19T00:32:28.123Z,98070.70
2019-01-19T00:32:59.738Z,98069.79
2019-01-19T00:33:31.362Z,98073.14
2019-01-19T00:34:02.992Z,98074.35
2019-01-19T00:34:34.623Z,98067.02
2019-01-19T00:35:06.260Z,98073.81
2019-01-19T00:35:37.872Z,98074.19
2019-01-19T00:36:09.483Z,98071.58
2019-01-19T00:36:41.148Z,98068.54
2019-01-19T00:37:12.744Z,98074.03
2019-01-19T00:37:44.365Z,98077.81
2019-01-19T00:38:15.994Z,98070.13
2019-01-19T00:38:47.587Z,98039.05
2019-01-19T00:39:19.202Z,98073.91
2019-01-19T00:39:50.824Z,98072.16
2019-01-19T00:40:22.443Z,98073.00
2019-01-19T00:40:54.066Z,98073.37
2019-01-19T00:41:25.688Z,98064.50
2019-01-19T00:41:57.356Z,98073.80
2019-01-19T00:42:28.970Z,98075.07
2019-01-19T00:43:00.585Z,98073.78
2019-01-19T00:43:32.207Z,98074.20
2019-01-19T00:44:03.814Z,98073.35
2019-01-19T00:44:35.426Z,98073.75
2019-01-19T00:45:07.038Z,98071.62
2019-01-19T00:45:38.645Z,98074.59
2019-01-19T00:46:10.266Z,98074.20
2019-01-19T00:46:41.874Z,98073.78
2019-01-19T00:47:13.535Z,98074.20
2019-01-19T00:47:45.159Z,98070.78
2019-01-19T00:48:16.776Z,98075.41
2019-01-19T00:48:48.625Z,98071.95
2019-01-19T00:49:20.224Z,98075.72
2019-01-19T00:49:51.838Z,98076.94
2019-01-19T00:50:23.470Z,98070.54
2019-01-19T00:50:55.098Z,98077.30
2019-01-19T00:51:26.706Z,98069.20
2019-01-19T00:51:58.303Z,98075.13
2019-01-19T00:52:29.943Z,98077.72
2019-01-19T00:53:01.561Z,98076.02
2019-01-19T00:53:33.189Z,98075.16
2019-01-19T00:54:04.842Z,98073.04
2019-01-19T00:54:36.468Z,98070.50
2019-01-19T00:55:08.089Z,98076.03
2019-01-19T00:55:39.716Z,98071.34
2019-01-19T00:56:11.312Z,98074.27
2019-01-19T00:56:42.922Z,98078.51
2019-01-19T00:57:14.537Z,98077.61
2019-01-19T00:57:46.200Z,98072.06
2019-01-19T00:58:17.812Z,98059.11
2019-01-19T00:58:49.428Z,98073.77
2019-01-19T00:59:21.056Z,98079.31
2019-01-19T00:59:52.689Z,98073.34
2019-01-19T01:00:24.298Z,98072.94
2019-01-19T01:00:55.919Z,98075.96
2019-01-19T01:01:27.542Z,98077.30
2019-01-19T01:01:59.164Z,98074.33
2019-01-19T01:02:30.780Z,98075.23
2019-01-19T01:03:02.464Z,98078.66
2019-01-19T01:03:34.071Z,98083.37
2019-01-19T01:04:05.679Z,98078.33
2019-01-19T01:04:37.289Z,98073.70
2019-01-19T01:05:08.898Z,98080.53
2019-01-19T01:05:40.515Z,98078.03
2019-01-19T01:06:12.145Z,98080.59
2019-01-19T01:06:43.773Z,98075.50
2019-01-19T01:07:15.425Z,98085.30
2019-01-19T01:07:47.062Z,98081.46
2019-01-19T01:08:18.732Z,98079.81
2019-01-19T01:08:50.365Z,98076.41
2019-01-19T01:09:21.996Z,98081.16
2019-01-19T01:09:53.641Z,98082.91
2019-01-19T01:10:25.272Z,98078.75
2019-01-19T01:10:56.913Z,98081.37
2019-01-19T01:11:28.540Z,98078.44
2019-01-19T01:12:00.162Z,98084.45
2019-01-19T01:12:31.823Z,98082.77
2019-01-19T01:13:03.481Z,98087.08
2019-01-19T01:13:35.143Z,98082.45
2019-01-19T01:14:06.758Z,98090.11
2019-01-19T01:14:38.390Z,98084.67
2019-01-19T01:15:10.010Z,98079.16
2019-01-19T01:15:41.628Z,98086.83
2019-01-19T01:16:13.250Z,98085.17
2019-01-19T01:16:44.866Z,98086.91
2019-01-19T01:17:16.474Z,98084.37
2019-01-19T01:17:48.099Z,98084.38
2019-01-19T01:18:19.726Z,98088.25
2019-01-19T01:18:51.371Z,98083.58
2019-01-19T01:19:23.009Z,98085.33
2019-01-19T01:19:54.647Z,98083.20
2019-01-19T01:20:26.275Z,98087.50
2019-01-19T01:20:57.901Z,98081.17
2019-01-19T01:21:29.519Z,98090.95
2019-01-19T01:22:01.142Z,98081.61
2019-01-19T01:22:32.768Z,98085.91
2019-01-19T01:23:04.409Z,98086.34
2019-01-19T01:23:36.041Z,98089.36
2019-01-19T01:24:07.674Z,98070.02
2019-01-19T01:24:39.305Z,98079.63
2019-01-19T01:25:10.929Z,98081.77
2019-01-19T01:25:42.562Z,98090.73
2019-01-19T01:26:14.193Z,98081.40
2019-01-19T01:26:45.837Z,98083.09
2019-01-19T01:27:17.499Z,98084.37
2019-01-19T01:27:49.115Z,98086.50
2019-01-19T01:28:20.779Z,98078.88
2019-01-19T01:28:52.411Z,98081.88
2019-01-19T01:29:24.024Z,98080.21
2019-01-19T01:29:55.647Z,98082.34
2019-01-19T01:30:27.261Z,98081.11
2019-01-19T01:30:58.906Z,98078.98
2019-01-19T01:31:30.533Z,98087.49
2019-01-19T01:32:02.390Z,98079.84
2019-01-19T01:32:34.065Z,98081.13
2019-01-19T01:33:05.690Z,98078.61
2019-01-19T01:33:37.339Z,98079.05
2019-01-19T01:34:08.959Z,98080.75
2019-01-19T01:34:40.599Z,98081.60
2019-01-19T01:35:12.228Z,98079.52
2019-01-19T01:35:43.853Z,98083.34
2019-01-19T01:36:15.476Z,98085.05
2019-01-19T01:36:47.096Z,98074.00
2019-01-19T01:37:18.745Z,98076.16
2019-01-19T01:37:50.356Z,98077.44
2019-01-19T01:38:21.990Z,98082.97
2019-01-19T01:38:53.615Z,98079.99
2019-01-19T01:39:25.233Z,98080.42
2019-01-19T01:39:56.851Z,98078.30
2019-01-19T01:40:28.457Z,98082.55
2019-01-19T01:41:00.137Z,98079.57
2019-01-19T01:41:31.771Z,98077.44
2019-01-19T01:42:03.378Z,98079.98
2019-01-19T01:42:34.996Z,98077.44
2019-01-19T01:43:06.665Z,98074.89
2019-01-19T01:43:38.303Z,98075.73
2019-01-19T01:44:09.923Z,98076.98
2019-01-19T01:44:41.535Z,98077.41
2019-01-19T01:45:13.167Z,98079.52
2019-01-19T01:45:44.803Z,98077.39
2019-01-19T01:46:16.432Z,98078.20
2019-01-19T01:46:48.050Z,98074.38
2019-01-19T01:47:19.686Z,98070.54
2019-01-19T01:47:51.324Z,98070.50
2019-01-19T01:48:23.010Z,98078.99
2019-01-19T01:48:54.640Z,98078.14
2019-01-19T01:49:26.259Z,98078.13
2019-01-19T01:49:57.860Z,98079.80
2019-01-19T01:50:29.457Z,98080.64
2019-01-19T01:51:01.095Z,98077.23
2019-01-19T01:51:32.717Z,98074.64
2019-01-19T01:52:04.332Z,98071.66
2019-01-19T01:52:35.952Z,98072.47
2019-01-19T01:53:07.566Z,98069.48
2019-01-19T01:53:39.221Z,98069.91
2019-01-19T01:54:10.835Z,98074.53
2019-01-19T01:54:42.434Z,98071.08
2019-01-19T01:55:14.046Z,98076.59
2019-01-19T01:55:45.676Z,98071.88
2019-01-19T01:56:17.306Z,98072.67
2019-01-19T01:56:48.952Z,98067.99
2019-01-19T01:57:20.565Z,98068.80
2019-01-19T01:57:52.181Z,98067.47
2019-01-19T01:58:23.798Z,98072.19
2019-01-19T01:58:55.465Z,98065.76
2019-01-19T01:59:27.077Z,98067.03
2019-01-19T01:59:58.717Z,98066.13
2019-01-19T02:00:30.317Z,98068.67
2019-01-19T02:01:01.927Z,98066.13
2019-01-19T02:01:33.563Z,98063.95
2019-01-19T02:02:05.190Z,98063.95
2019-01-19T02:02:36.816Z,98060.55
2019-01-19T02:03:08.435Z,98060.55
2019-01-19T02:03:40.056Z,98062.66
2019-01-19T02:04:11.720Z,98063.90
2019-01-19T02:04:43.585Z,98065.61
2019-01-19T02:05:15.223Z,98063.04
2019-01-19T02:05:46.827Z,98064.74
2019-01-19T02:06:18.442Z,98058.35
2019-01-19T02:06:50.071Z,98066.02
2019-01-19T02:07:21.718Z,98068.95
2019-01-19T02:07:53.341Z,98060.02
2019-01-19T02:08:24.984Z,98062.56
2019-01-19T02:08:56.607Z,98060.43
2019-01-19T02:09:28.250Z,98065.90
2019-01-19T02:09:59.872Z,98063.67
2019-01-19T02:10:31.505Z,98058.55
2019-01-19T02:11:03.105Z,98060.62
2019-01-19T02:11:34.725Z,98062.33
2019-01-19T02:12:06.343Z,98062.33
2019-01-19T02:12:37.964Z,98061.91
2019-01-19T02:13:09.574Z,98058.92
2019-01-19T02:13:41.186Z,98056.33
2019-01-19T02:14:12.789Z,98061.37
2019-01-19T02:14:44.451Z,98059.98
2019-01-19T02:15:16.122Z,98062.89
2019-01-19T02:15:47.771Z,98054.33
2019-01-19T02:16:19.397Z,98059.81
2019-01-19T02:16:51.010Z,98055.13
2019-01-19T02:17:22.640Z,98054.28
2019-01-19T02:17:54.307Z,98032.92
2019-01-19T02:18:25.932Z,98061.45
2019-01-19T02:18:57.551Z,98055.50
2019-01-19T02:19:29.167Z,98058.52
2019-01-19T02:20:00.783Z,98060.22
2019-01-19T02:20:32.417Z,98060.59
2019-01-19T02:21:04.078Z,98060.17
2019-01-19T02:21:35.694Z,98062.47
2019-01-19T02:22:07.320Z,98064.73
2019-01-19T02:22:38.929Z,98058.95
2019-01-19T02:23:10.553Z,98062.09
2019-01-19T02:23:42.162Z,98058.41
2019-01-19T02:24:13.769Z,98059.38
2019-01-19T02:24:45.377Z,98059.81
2019-01-19T02:25:16.987Z,98060.70
2019-01-19T02:25:48.580Z,98062.78
2019-01-19T02:26:20.237Z,98054.70
2019-01-19T02:26:51.846Z,98056.77
2019-01-19T02:27:23.487Z,98060.97
2019-01-19T02:27:55.093Z,98057.56
2019-01-19T02:28:26.702Z,98060.07
2019-01-19T02:28:58.318Z,98057.50
2019-01-19T02:29:29.926Z,98056.19
2019-01-19T02:30:01.536Z,98060.43
2019-01-19T02:30:33.176Z,98053.62
2019-01-19T02:31:04.810Z,98053.56
2019-01-19T02:31:36.510Z,98057.39
2019-01-19T02:32:08.122Z,98016.63
2019-01-19T02:32:39.992Z,98058.25
2019-01-19T02:33:11.652Z,98057.41
2019-01-19T02:33:43.289Z,98065.48
2019-01-19T02:34:14.904Z,98026.73
2019-01-19T02:34:46.535Z,98057.41
2019-01-19T02:35:18.140Z,98060.38
2019-01-19T02:35:49.764Z,98059.95
2019-01-19T02:36:21.640Z,98057.87
2019-01-19T02:36:53.263Z,98060.81
2019-01-19T02:37:24.896Z,98059.14
2019-01-19T02:37:56.544Z,98056.59
2019-01-19T02:38:28.417Z,98056.13
2019-01-19T02:39:00.045Z,98058.68
2019-01-19T02:39:31.672Z,98041.45
2019-01-19T02:40:03.310Z,98057.87
2019-01-19T02:40:35.170Z,98055.75
2019-01-19T02:41:06.797Z,98063.41
2019-01-19T02:41:38.660Z,98059.96
2019-01-19T02:42:10.289Z,98062.94
2019-01-19T02:42:41.911Z,98062.55
2019-01-19T02:43:13.542Z,98060.86
2019-01-19T02:43:45.176Z,98057.08
2019-01-19T02:44:16.834Z,98059.63
2019-01-19T02:44:48.469Z,98061.76
2019-01-19T02:45:20.098Z,98043.27
2019-01-19T02:45:51.723Z,98060.91
2019-01-19T02:46:23.347Z,98055.81
2019-01-19T02:46:54.962Z,98062.20
2019-01-19T02:47:26.592Z,98056.67
2019-01-19T02:47:58.262Z,98055.02
2019-01-19T02:48:29.865Z,98064.33
2019-01-19T02:49:01.798Z,98055.44
2019-01-19T02:49:33.442Z,98060.54
2019-01-19T02:50:05.062Z,98063.95
2019-01-19T02:50:36.726Z,98053.31
2019-01-19T02:51:08.347Z,98057.99
2019-01-19T02:51:39.964Z,98056.71
2019-01-19T02:52:11.577Z,98057.56
2019-01-19T02:52:43.210Z,98055.00
2019-01-19T02:53:14.822Z,98056.71
2019-01-19T02:53:46.443Z,98053.73
2019-01-19T02:54:18.098Z,98051.19
2019-01-19T02:54:49.708Z,98054.17
2019-01-19T02:55:21.380Z,98055.50
2019-01-19T02:55:53.011Z,98055.91
2019-01-19T02:56:24.634Z,98053.79
2019-01-19T02:56:56.255Z,98055.07
2019-01-19T02:57:27.863Z,98055.11
2019-01-19T02:57:59.508Z,98055.97
2019-01-19T02:58:31.179Z,98054.28
2019-01-19T02:59:02.802Z,98054.33
2019-01-19T02:59:34.419Z,98053.06
2019-01-19T03:00:06.062Z,98053.95
2019-01-19T03:00:37.725Z,98052.69
2019-01-19T03:01:09.351Z,98054.39
2019-01-19T03:01:41.577Z,98051.45
2019-01-19T03:02:13.198Z,98056.09
2019-01-19T03:02:44.848Z,98058.26
2019-01-19T03:03:16.471Z,98055.70
2019-01-19T03:03:48.101Z,98055.28
2019-01-19T03:04:19.722Z,98053.58
2019-01-19T03:04:51.333Z,98059.54
2019-01-19T03:05:22.944Z,98057.37
2019-01-19T03:05:56.183Z,98063.74
2019-01-19T03:06:26.270Z,98055.19
2019-01-19T03:06:57.878Z,98056.88
2019-01-19T03:07:29.489Z,98056.41
2019-01-19T03:08:01.107Z,98059.80
2019-01-19T03:08:32.719Z,98063.63
2019-01-19T03:09:04.330Z,98061.52
2019-01-19T03:09:35.948Z,98059.00
2019-01-19T03:10:07.562Z,98061.56
2019-01-19T03:10:39.185Z,98055.22
2019-01-19T03:11:10.861Z,98058.58
2019-01-19T03:11:42.514Z,98059.00
2019-01-19T03:12:14.119Z,98059.00
2019-01-19T03:12:45.732Z,98055.17
2019-01-19T03:13:17.354Z,98053.90
2019-01-19T03:13:48.980Z,98060.23
2019-01-19T03:14:20.586Z,98061.50
2019-01-19T03:14:52.212Z,98060.65
2019-01-19T03:15:23.840Z,98051.25
2019-01-19T03:15:55.462Z,98053.37
2019-01-19T03:16:27.064Z,98052.05
2019-01-19T03:16:58.698Z,98060.50
2019-01-19T03:17:30.316Z,98055.39
2019-01-19T03:18:01.962Z,98053.31
2019-01-19T03:18:33.584Z,98050.75
2019-01-19T03:19:05.199Z,98054.53
2019-01-19T03:19:36.810Z,98061.34
2019-01-19T03:20:08.434Z,98055.86
2019-01-19T03:20:40.050Z,98057.95
2019-01-19T03:21:11.668Z,98055.02
2019-01-19T03:21:43.264Z,98036.09
2019-01-19T03:22:14.889Z,98058.42
2019-01-19T03:22:46.516Z,98060.54
2019-01-19T03:23:18.175Z,98061.40
2019-01-19T03:23:49.795Z,98054.59
2019-01-19T03:24:21.410Z,98063.14
2019-01-19T03:24:53.022Z,98060.61
2019-01-19T03:25:24.651Z,98062.73
2019-01-19T03:25:56.266Z,98060.59
2019-01-19T03:26:27.876Z,98060.18
2019-01-19T03:26:59.496Z,98064.42
2019-01-19T03:27:31.112Z,98061.88
2019-01-19T03:28:02.718Z,98055.48
2019-01-19T03:28:34.367Z,98062.30
2019-01-19T03:29:05.986Z,98061.45
2019-01-19T03:29:37.616Z,98056.34
2019-01-19T03:30:09.250Z,98055.08
2019-01-19T03:30:40.871Z,98058.89
2019-01-19T03:31:12.493Z,98055.50
2019-01-19T03:31:44.117Z,98051.67
2019-01-19T03:32:15.738Z,98055.11
2019-01-19T03:32:47.366Z,98053.84
2019-01-19T04:20:59.503Z,98038.42
2019-01-19T04:21:31.131Z,98043.05
2019-01-19T04:22:02.722Z,98035.79
2019-01-19T04:22:34.324Z,98039.60
2019-01-19T04:23:05.927Z,98037.02
2019-01-19T04:23:37.542Z,98035.69
2019-01-19T04:24:09.131Z,98035.25
2019-01-19T04:24:40.763Z,98036.06
2019-01-19T04:25:12.361Z,98030.06
2019-01-19T04:25:43.971Z,98034.66
2019-01-19T04:26:15.577Z,98034.59
2019-01-19T04:26:47.243Z,97994.53
2019-01-19T04:27:18.836Z,98031.48
2019-01-19T04:27:50.436Z,98029.72
2019-01-19T04:28:22.045Z,98030.48
2019-01-19T04:28:53.652Z,98029.56
2019-01-19T04:29:25.263Z,98027.78
2019-01-19T04:29:56.911Z,98034.97
2019-01-19T04:30:28.526Z,98030.61
2019-01-19T04:31:00.146Z,98028.83
2019-01-19T04:31:31.755Z,97996.37
2019-01-19T04:32:03.351Z,98026.53
2019-01-19T04:32:34.957Z,98033.66
2019-01-19T04:33:06.571Z,98036.16
2019-01-19T04:33:38.188Z,98030.14
2019-01-19T04:34:09.786Z,98031.36
2019-01-19T04:34:41.369Z,98028.81
2019-01-19T04:35:12.984Z,98026.56
2019-01-19T04:35:44.574Z,98026.04
2019-01-19T04:36:21.515Z,98027.68
2019-01-19T04:36:47.844Z,98027.19
2019-01-19T04:37:19.450Z,98033.47
2019-01-19T04:37:51.064Z,98030.43
2019-01-19T04:38:22.672Z,98029.09
2019-01-19T04:38:54.275Z,98029.09
2019-01-19T04:39:25.887Z,98031.16
2019-01-19T04:39:57.557Z,98026.05
2019-01-19T04:40:29.170Z,98035.29
2019-01-19T04:41:00.752Z,98035.22
2019-01-19T04:41:32.442Z,98032.19
2019-01-19T04:42:04.044Z,98033.41
2019-01-19T04:42:35.635Z,98029.10
2019-01-19T04:43:07.255Z,98028.62
2019-01-19T04:43:38.881Z,98028.56
2019-01-19T04:44:10.492Z,98028.52
2019-01-19T04:44:42.101Z,98034.84
2019-01-19T04:45:13.756Z,98031.79
2019-01-19T04:45:45.395Z,98028.32
2019-01-19T04:46:17.008Z,98028.70
2019-01-19T04:46:48.617Z,98030.77
2019-01-19T04:47:20.214Z,98029.05
2019-01-19T04:47:51.806Z,98029.86
2019-01-19T04:48:23.482Z,98033.69
2019-01-19T04:48:55.102Z,98031.50
2019-01-19T04:49:26.713Z,98032.78
2019-01-19T04:49:58.341Z,98036.60
2019-01-19T04:50:29.967Z,98031.05
2019-01-19T04:51:01.563Z,98036.13
2019-01-19T04:51:33.161Z,98040.84
2019-01-19T04:52:04.776Z,98031.86
2019-01-19T04:52:36.370Z,98036.59
2019-01-19T04:53:07.977Z,98033.98
2019-01-19T04:53:39.598Z,98033.13
2019-01-19T04:54:11.203Z,98036.52
2019-01-19T04:54:42.836Z,98036.95
2019-01-19T04:55:14.429Z,98037.38
2019-01-19T04:55:46.020Z,98036.10
2019-01-19T04:56:17.628Z,98036.06
2019-01-19T04:56:49.225Z,98036.52
2019-01-19T04:57:20.805Z,98033.50
2019-01-19T04:57:52.398Z,98022.26
2019-01-19T04:58:24.000Z,98037.70
2019-01-19T04:58:55.612Z,98038.19
2019-01-19T04:59:27.205Z,98036.89
2019-01-19T04:59:58.826Z,98033.91
2019-01-19T05:00:30.422Z,98035.57
2019-01-19T05:01:02.021Z,98036.45
2019-01-19T05:01:33.626Z,98034.77
2019-01-19T05:02:05.224Z,98037.34
2019-01-19T05:02:36.814Z,98036.48
2019-01-19T05:03:08.420Z,98035.25
2019-01-19T05:03:40.032Z,98035.69
2019-01-19T05:04:11.636Z,98031.02
2019-01-19T05:04:43.291Z,98038.72
2019-01-19T05:05:14.886Z,98028.63
2019-01-19T05:05:46.488Z,98036.29
2019-01-19T05:06:18.095Z,98038.43
2019-01-19T05:06:49.703Z,98035.88
2019-01-19T05:07:21.306Z,98032.16
2019-01-19T05:07:52.901Z,98036.44
2019-01-19T05:08:24.494Z,98037.28
2019-01-19T05:08:56.086Z,98040.31
2019-01-19T05:09:27.678Z,98034.36
2019-01-19T05:09:59.307Z,98039.05
2019-01-19T05:10:30.898Z,98035.70
2019-01-19T05:11:02.495Z,98037.88
2019-01-19T05:11:34.104Z,98033.22
2019-01-19T05:12:05.698Z,98025.60
2019-01-19T05:12:37.300Z,98032.42
2019-01-19T05:13:08.898Z,98031.20
2019-01-19T05:13:40.480Z,98029.89
2019-01-19T05:14:12.073Z,98029.52
2019-01-19T05:14:43.672Z,98031.23
2019-01-19T05:15:15.319Z,98031.30
2019-01-19T05:15:46.923Z,98031.34
2019-01-19T05:16:18.517Z,98030.55
2019-01-19T05:16:50.124Z,98031.45
2019-01-19T05:17:21.717Z,98032.79
2019-01-19T05:17:53.328Z,98029.82
2019-01-19T05:18:24.922Z,98033.23
2019-01-19T05:18:56.505Z,98027.76
2019-01-19T05:19:28.102Z,98034.19
2019-01-19T05:19:59.712Z,98031.20
2019-01-19T05:20:31.345Z,98032.48
2019-01-19T05:21:02.939Z,98030.80
2019-01-19T05:21:34.521Z,98028.73
2019-01-19T05:22:06.117Z,98029.58
2019-01-19T05:22:37.705Z,98032.59
2019-01-19T05:23:10.815Z,98031.34
2019-01-19T05:23:40.976Z,98035.17
2019-01-19T05:24:12.570Z,98032.67
2019-01-19T05:24:44.168Z,98031.83
2019-01-19T05:25:15.761Z,98029.32
2019-01-19T05:25:47.408Z,98031.92
2019-01-19T05:26:19.020Z,98036.24
2019-01-19T05:26:50.637Z,98039.22
2019-01-19T05:27:22.235Z,98035.92
2019-01-19T05:27:53.825Z,98041.46
2019-01-19T05:28:25.429Z,98042.37
2019-01-19T05:28:57.022Z,98039.44
2019-01-19T05:29:28.627Z,98045.02
2019-01-19T05:30:00.248Z,98040.35
2019-01-19T05:30:31.892Z,98040.88
2019-01-19T05:31:03.506Z,98043.44
2019-01-19T05:31:35.107Z,98038.38
2019-01-19T05:32:06.720Z,98037.20
2019-01-19T05:32:38.319Z,98044.87
2019-01-19T05:33:09.912Z,98043.65
2019-01-19T05:33:41.500Z,98045.77
2019-01-19T05:34:13.104Z,98039.02
2019-01-19T05:34:44.701Z,98044.97
2019-01-19T05:35:16.331Z,98047.57
2019-01-19T05:35:47.955Z,98046.77
2019-01-19T05:36:19.564Z,98046.36
2019-01-19T05:36:51.157Z,98045.56
2019-01-19T05:37:22.768Z,98051.09
2019-01-19T05:37:54.404Z,98049.87
2019-01-19T05:38:26.011Z,98053.73
2019-01-19T05:38:57.610Z,98050.30
2019-01-19T05:39:29.216Z,98051.63
2019-01-19T05:40:00.840Z,98048.66
2019-01-19T05:40:32.433Z,98049.55
2019-01-19T05:41:04.026Z,98054.66
2019-01-19T05:41:35.617Z,98048.33
2019-01-19T05:42:07.214Z,98046.20
2019-01-19T05:42:38.796Z,98041.58
2019-01-19T05:43:10.376Z,98049.23
2019-01-19T05:43:41.984Z,98051.41
2019-01-19T05:44:13.587Z,98052.68
2019-01-19T05:44:45.202Z,98056.97
2019-01-19T05:45:16.820Z,98054.44
2019-01-19T05:45:48.532Z,98052.77
2019-01-19T05:46:21.449Z,98051.08
2019-01-19T05:46:51.803Z,98052.39
2019-01-19T05:47:23.415Z,98056.65
2019-01-19T05:47:55.000Z,98046.45
2019-01-19T05:48:26.584Z,98050.28
2019-01-19T05:48:58.176Z,98047.34
2019-01-19T05:49:29.765Z,98051.59
2019-01-19T05:50:01.394Z,98045.27
2019-01-19T05:50:32.997Z,98052.07
2019-01-19T05:51:04.594Z,98050.42
2019-01-19T05:51:36.201Z,98053.02
2019-01-19T05:52:07.797Z,98050.47
2019-01-19T05:52:39.400Z,98052.64
2019-01-19T05:53:11.009Z,98049.24
2019-01-19T05:53:42.608Z,98049.28
2019-01-19T05:54:14.194Z,98052.27
2019-01-19T05:54:45.786Z,98045.04
2019-01-19T05:55:17.426Z,98053.58
2019-01-19T05:55:49.018Z,98054.84
2019-01-19T05:56:20.624Z,98045.13
2019-01-19T05:56:52.227Z,98048.48
2019-01-19T05:57:23.821Z,98054.81
2019-01-19T05:57:55.429Z,98053.96
2019-01-19T05:58:27.022Z,98051.41
2019-01-19T05:58:58.632Z,98048.86
2019-01-19T05:59:30.339Z,98046.30
2019-01-19T06:00:01.903Z,98050.52
2019-01-19T06:00:33.538Z,98050.05
2019-01-19T06:01:05.129Z,98047.07
2019-01-19T06:01:36.722Z,98047.02
2019-01-19T06:02:08.309Z,98050.33
2019-01-19T06:02:39.921Z,98048.16
2019-01-19T06:03:11.518Z,98051.08
2019-01-19T06:03:43.109Z,98050.17
2019-01-19T06:04:14.712Z,98040.36
2019-01-19T06:04:46.321Z,98044.55
2019-01-19T06:05:17.908Z,98043.23
2019-01-19T06:05:49.517Z,98040.63
2019-01-19T06:06:21.125Z,98044.36
2019-01-19T06:06:52.722Z,98042.21
2019-01-19T06:07:24.314Z,98043.00
2019-01-19T06:07:55.911Z,98041.63
2019-01-19T06:08:27.523Z,98041.14
2019-01-19T06:08:59.104Z,98040.20
2019-01-19T06:09:30.704Z,98038.01
2019-01-19T06:10:02.312Z,98042.95
2019-01-19T06:10:33.906Z,98042.84
2019-01-19T06:11:05.497Z,98044.43
2019-01-19T06:11:37.101Z,98042.24
2019-01-19T06:12:08.684Z,98042.14
2019-01-19T06:12:40.277Z,98048.45
2019-01-19T06:13:11.871Z,98043.67
2019-01-19T06:13:43.467Z,98041.05
2019-01-19T06:14:15.067Z,98035.47
2019-01-19T06:14:46.676Z,98038.39
2019-01-19T06:15:18.319Z,98040.39
2019-01-19T06:15:49.928Z,98035.64
2019-01-19T06:16:21.541Z,98037.25
2019-01-19T06:16:53.156Z,98038.08
2019-01-19T06:17:24.749Z,98003.19
2019-01-19T06:17:56.393Z,98046.94
2019-01-19T06:18:27.991Z,98039.23
2019-01-19T06:18:59.651Z,98043.00
2019-01-19T06:19:31.253Z,98039.11
2019-01-19T06:20:02.853Z,98038.24
2019-01-19T06:20:34.435Z,98039.41
2019-01-19T06:21:06.048Z,98044.82
2019-01-19T06:21:37.645Z,98041.78
2019-01-19T06:22:09.238Z,98044.27
2019-01-19T06:22:40.844Z,98011.08
2019-01-19T06:23:12.450Z,98046.70
2019-01-19T06:23:44.044Z,98045.84
2019-01-19T06:24:15.638Z,98042.38
2019-01-19T06:24:47.244Z,98051.73
2019-01-19T06:25:18.865Z,98049.99
2019-01-19T06:25:50.527Z,98050.89
2019-01-19T06:26:22.131Z,98048.33
2019-01-19T06:26:53.739Z,98050.41
2019-01-19T06:27:25.338Z,98047.84
2019-01-19T06:27:56.934Z,98045.70
2019-01-19T06:28:28.526Z,98045.73
2019-01-19T06:29:00.118Z,98048.64
2019-01-19T06:29:31.753Z,98047.78
2019-01-19T06:30:03.359Z,98053.26
2019-01-19T06:30:34.944Z,98049.36
2019-01-19T06:31:07.171Z,98048.02
2019-01-19T06:31:38.235Z,98051.37
2019-01-19T06:32:09.831Z,98047.95
2019-01-19T06:32:41.422Z,98045.80
2019-01-19T06:33:13.032Z,98051.36
2019-01-19T06:33:44.625Z,98052.22
2019-01-19T06:34:16.227Z,98050.98
2019-01-19T06:34:47.823Z,98051.86
2019-01-19T06:35:19.449Z,98049.34
2019-01-19T06:35:51.046Z,98048.94
2019-01-19T06:36:22.713Z,98054.47
2019-01-19T06:36:55.161Z,98054.89
2019-01-19T06:37:25.946Z,98050.66
2019-01-19T06:37:57.558Z,98043.88
2019-01-19T06:38:29.178Z,98051.55
2019-01-19T06:39:00.791Z,98052.45
2019-01-19T06:39:32.390Z,98059.33
2019-01-19T06:40:04.036Z,98047.42
2019-01-19T06:40:35.656Z,98050.89
2019-01-19T06:41:07.271Z,98048.77
2019-01-19T06:41:38.856Z,98048.41
2019-01-19T06:42:10.463Z,98051.39
2019-01-19T06:42:42.072Z,98045.13
2019-01-19T06:43:13.684Z,98054.50
2019-01-19T06:43:45.289Z,98049.86
2019-01-19T06:44:16.883Z,98047.80
2019-01-19T06:44:48.484Z,98056.37
2019-01-19T06:45:20.122Z,98050.91
2019-01-19T06:45:51.750Z,98052.23
2019-01-19T06:46:23.362Z,98053.99
2019-01-19T06:46:54.962Z,98056.61
2019-01-19T06:47:26.553Z,98051.14
2019-01-19T06:47:58.145Z,98054.16
2019-01-19T06:48:29.741Z,98052.52
2019-01-19T06:49:01.352Z,98054.28
2019-01-19T06:49:32.941Z,98055.61
2019-01-19T06:50:04.548Z,98058.23
2019-01-19T06:50:36.143Z,98054.49
2019-01-19T06:51:07.752Z,98053.28
2019-01-19T06:51:39.356Z,98049.46
2019-01-19T06:52:11.097Z,98052.11
2019-01-19T06:52:42.618Z,98055.09
2019-01-19T06:53:14.210Z,98059.42
2019-01-19T06:53:45.810Z,98056.06
2019-01-19T06:54:17.429Z,98061.64
2019-01-19T06:54:49.029Z,98055.70
2019-01-19T06:55:20.631Z,98057.46
2019-01-19T06:55:52.239Z,98058.36
2019-01-19T06:56:23.834Z,98062.23
2019-01-19T06:56:55.440Z,98056.30
2019-01-19T06:57:27.051Z,98058.05
2019-01-19T06:57:58.657Z,98059.76
2019-01-19T06:58:31.250Z,98057.31
2019-01-19T06:59:01.902Z,98057.72